sensor_id;sensor_type;location;lat;lon;timestamp;P1;durP1;ratioP1;P2;durP2;ratioP2
53939;SDS011;39850;43.324;21.916;2023-02-19T00:04:09;159.0;;;116.0;;
53939;SDS011;39850;43.324;21.916;2023-02-19T00:08:50;166.0;;;124.0;;
53939;SDS011;39850;43.324;21.916;2023-02-19T00:13:26;166.0;;;124.0;;
53939;SDS011;39850;43.324;21.916;2023-02-19T00:18:04;174.0;;;131.0;;
53939;SDS011;39850;43.324;21.916;2023-02-19T00:22:40;174.0;;;131.0;;
53939;SDS011;39850;43.324;21.916;2023-02-19T00:27:17;174.0;;;131.0;;
53939;SDS011;39850;43.324;21.916;2023-02-19T00:59:44;380.0;;;254.0;;
53939;SDS011;39850;43.324;21.916;2023-02-19T01:04:21;380.0;;;254.0;;
53939;SDS011;39850;43.324;21.916;2023-02-19T01:08:59;400.0;;;269.0;;
53939;SDS011;39850;43.324;21.916;2023-02-19T01:13:39;400.0;;;269.0;;
53939;SDS011;39850;43.324;21.916;2023-02-19T01:18:17;400.0;;;269.0;;
53939;SDS011;39850;43.324;21.916;2023-02-19T01:22:54;400.0;;;269.0;;
53939;SDS011;39850;43.324;21.916;2023-02-19T01:27:31;400.0;;;269.0;;
53939;SDS011;39850;43.324;21.916;2023-02-19T01:32:08;419.0;;;284.0;;
53939;SDS011;39850;43.324;21.916;2023-02-19T01:36:46;419.0;;;284.0;;
53939;SDS011;39850;43.324;21.916;2023-02-19T02:20:44;215.0;;;149.0;;
53939;SDS011;39850;43.324;21.916;2023-02-19T02:26:29;215.0;;;149.0;;
53939;SDS011;39850;43.324;21.916;2023-02-19T02:31:39;219.0;;;152.0;;
53939;SDS011;39850;43.324;21.916;2023-02-19T02:36:36;219.0;;;152.0;;
53939;SDS011;39850;43.324;21.916;2023-02-19T02:41:16;215.0;;;149.0;;
53939;SDS011;39850;43.324;21.916;2023-02-19T02:45:55;215.0;;;149.0;;
53939;SDS011;39850;43.324;21.916;2023-02-19T02:50:51;176.0;;;125.0;;
53939;SDS011;39850;43.324;21.916;2023-02-19T02:55:48;176.0;;;125.0;;
53939;SDS011;39850;43.324;21.916;2023-02-19T03:00:36;129.0;;;96.0;;
53939;SDS011;39850;43.324;21.916;2023-02-19T03:05:27;129.0;;;96.0;;
53939;SDS011;39850;43.324;21.916;2023-02-19T03:39:24;44.0;;;37.0;;
53939;SDS011;39850;43.324;21.916;2023-02-19T03:44:27;44.0;;;37.0;;
53939;SDS011;39850;43.324;21.916;2023-02-19T03:49:40;42.0;;;35.0;;
53939;SDS011;39850;43.324;21.916;2023-02-19T03:54:50;42.0;;;35.0;;
53939;SDS011;39850;43.324;21.916;2023-02-19T03:59:54;41.0;;;33.0;;
53939;SDS011;39850;43.324;21.916;2023-02-19T04:04:53;41.0;;;33.0;;
53939;SDS011;39850;43.324;21.916;2023-02-19T04:09:48;39.0;;;32.0;;
53939;SDS011;39850;43.324;21.916;2023-02-19T04:14:48;39.0;;;32.0;;
53939;SDS011;39850;43.324;21.916;2023-02-19T04:19:44;37.0;;;30.0;;
53939;SDS011;39850;43.324;21.916;2023-02-19T04:24:46;37.0;;;30.0;;
53939;SDS011;39850;43.324;21.916;2023-02-19T05:11:10;25.0;;;22.0;;
53939;SDS011;39850;43.324;21.916;2023-02-19T05:16:04;25.0;;;22.0;;
53939;SDS011;39850;43.324;21.916;2023-02-19T05:20:42;26.0;;;22.0;;
53939;SDS011;39850;43.324;21.916;2023-02-19T05:25:19;26.0;;;22.0;;
53939;SDS011;39850;43.324;21.916;2023-02-19T05:29:55;26.0;;;22.0;;
53939;SDS011;39850;43.324;21.916;2023-02-19T05:34:32;26.0;;;22.0;;
53939;SDS011;39850;43.324;21.916;2023-02-19T05:39:11;26.0;;;22.0;;
53939;SDS011;39850;43.324;21.916;2023-02-19T05:43:51;26.0;;;22.0;;
53939;SDS011;39850;43.324;21.916;2023-02-19T05:48:29;26.0;;;22.0;;
53939;SDS011;39850;43.324;21.916;2023-02-19T06:21:00;29.0;;;26.0;;
53939;SDS011;39850;43.324;21.916;2023-02-19T06:25:36;29.0;;;26.0;;
53939;SDS011;39850;43.324;21.916;2023-02-19T06:30:13;30.0;;;26.0;;
53939;SDS011;39850;43.324;21.916;2023-02-19T06:34:50;30.0;;;26.0;;
53939;SDS011;39850;43.324;21.916;2023-02-19T06:39:27;29.0;;;26.0;;
53939;SDS011;39850;43.324;21.916;2023-02-19T06:44:04;29.0;;;26.0;;
53939;SDS011;39850;43.324;21.916;2023-02-19T06:48:45;29.0;;;26.0;;
53939;SDS011;39850;43.324;21.916;2023-02-19T06:53:24;30.0;;;26.0;;
53939;SDS011;39850;43.324;21.916;2023-02-19T06:58:01;30.0;;;26.0;;
53939;SDS011;39850;43.324;21.916;2023-02-19T07:02:38;28.0;;;24.0;;
53939;SDS011;39850;43.324;21.916;2023-02-19T07:07:15;28.0;;;24.0;;
53939;SDS011;39850;43.324;21.916;2023-02-19T07:39:44;32.0;;;29.0;;
53939;SDS011;39850;43.324;21.916;2023-02-19T07:44:20;32.0;;;29.0;;
53939;SDS011;39850;43.324;21.916;2023-02-19T07:48:59;32.0;;;29.0;;
53939;SDS011;39850;43.324;21.916;2023-02-19T07:53:36;30.0;;;27.0;;
53939;SDS011;39850;43.324;21.916;2023-02-19T07:58:13;30.0;;;27.0;;
53939;SDS011;39850;43.324;21.916;2023-02-19T08:02:50;28.0;;;25.0;;
53939;SDS011;39850;43.324;21.916;2023-02-19T08:07:33;28.0;;;25.0;;
53939;SDS011;39850;43.324;21.916;2023-02-19T08:12:11;28.0;;;24.0;;
53939;SDS011;39850;43.324;21.916;2023-02-19T08:16:50;28.0;;;24.0;;
53939;SDS011;39850;43.324;21.916;2023-02-19T08:21:27;27.0;;;24.0;;
53939;SDS011;39850;43.324;21.916;2023-02-19T08:26:06;27.0;;;24.0;;
53939;SDS011;39850;43.324;21.916;2023-02-19T09:03:09;44.0;;;41.0;;
53939;SDS011;39850;43.324;21.916;2023-02-19T09:07:46;44.0;;;41.0;;
53939;SDS011;39850;43.324;21.916;2023-02-19T09:12:24;46.0;;;40.0;;
53939;SDS011;39850;43.324;21.916;2023-02-19T09:17:07;46.0;;;40.0;;
53939;SDS011;39850;43.324;21.916;2023-02-19T09:21:44;44.0;;;40.0;;
53939;SDS011;39850;43.324;21.916;2023-02-19T09:26:21;44.0;;;40.0;;
53939;SDS011;39850;43.324;21.916;2023-02-19T09:31:06;44.0;;;38.0;;
53939;SDS011;39850;43.324;21.916;2023-02-19T09:35:46;44.0;;;38.0;;
53939;SDS011;39850;43.324;21.916;2023-02-19T09:40:23;41.0;;;36.0;;
53939;SDS011;39850;43.324;21.916;2023-02-19T09:45:05;41.0;;;36.0;;
53939;SDS011;39850;43.324;21.916;2023-02-19T10:23:33;27.0;;;22.0;;
53939;SDS011;39850;43.324;21.916;2023-02-19T10:28:23;27.0;;;22.0;;
53939;SDS011;39850;43.324;21.916;2023-02-19T10:33:15;26.0;;;22.0;;
53939;SDS011;39850;43.324;21.916;2023-02-19T10:37:53;26.0;;;22.0;;
53939;SDS011;39850;43.324;21.916;2023-02-19T10:42:31;25.0;;;22.0;;
53939;SDS011;39850;43.324;21.916;2023-02-19T10:47:24;25.0;;;22.0;;
53939;SDS011;39850;43.324;21.916;2023-02-19T10:52:24;24.0;;;23.0;;
53939;SDS011;39850;43.324;21.916;2023-02-19T10:57:30;24.0;;;23.0;;
53939;SDS011;39850;43.324;21.916;2023-02-19T11:02:20;25.0;;;24.0;;
53939;SDS011;39850;43.324;21.916;2023-02-19T11:06:57;25.0;;;24.0;;
53939;SDS011;39850;43.324;21.916;2023-02-19T11:39:59;14.0;;;13.0;;
53939;SDS011;39850;43.324;21.916;2023-02-19T11:45:28;14.0;;;13.0;;
53939;SDS011;39850;43.324;21.916;2023-02-19T11:50:51;14.0;;;12.0;;
53939;SDS011;39850;43.324;21.916;2023-02-19T11:56:16;14.0;;;12.0;;
53939;SDS011;39850;43.324;21.916;2023-02-19T12:01:29;14.0;;;12.0;;
53939;SDS011;39850;43.324;21.916;2023-02-19T12:07:02;14.0;;;12.0;;
53939;SDS011;39850;43.324;21.916;2023-02-19T12:12:59;12.0;;;10.0;;
53939;SDS011;39850;43.324;21.916;2023-02-19T12:20:39;10.0;;;9.0;;
53939;SDS011;39850;43.324;21.916;2023-02-19T12:26:19;10.0;;;9.0;;
53939;SDS011;39850;43.324;21.916;2023-02-19T13:03:57;15.0;;;10.0;;
53939;SDS011;39850;43.324;21.916;2023-02-19T13:09:14;15.0;;;10.0;;
53939;SDS011;39850;43.324;21.916;2023-02-19T13:14:26;15.0;;;10.0;;
53939;SDS011;39850;43.324;21.916;2023-02-19T13:19:09;15.0;;;10.0;;
53939;SDS011;39850;43.324;21.916;2023-02-19T13:23:46;15.0;;;10.0;;
53939;SDS011;39850;43.324;21.916;2023-02-19T13:29:24;15.0;;;10.0;;
53939;SDS011;39850;43.324;21.916;2023-02-19T13:35:11;15.0;;;10.0;;
53939;SDS011;39850;43.324;21.916;2023-02-19T13:40:31;15.0;;;10.0;;
53939;SDS011;39850;43.324;21.916;2023-02-19T13:45:39;15.0;;;10.0;;
53939;SDS011;39850;43.324;21.916;2023-02-19T14:25:52;14.0;;;12.0;;
53939;SDS011;39850;43.324;21.916;2023-02-19T14:30:52;14.0;;;12.0;;
53939;SDS011;39850;43.324;21.916;2023-02-19T14:35:53;14.0;;;12.0;;
53939;SDS011;39850;43.324;21.916;2023-02-19T14:40:47;14.0;;;12.0;;
53939;SDS011;39850;43.324;21.916;2023-02-19T14:45:48;14.0;;;12.0;;
53939;SDS011;39850;43.324;21.916;2023-02-19T14:50:33;16.0;;;12.0;;
53939;SDS011;39850;43.324;21.916;2023-02-19T14:55:35;16.0;;;12.0;;
53939;SDS011;39850;43.324;21.916;2023-02-19T15:00:36;17.0;;;13.0;;
53939;SDS011;39850;43.324;21.916;2023-02-19T15:05:25;17.0;;;13.0;;
53939;SDS011;39850;43.324;21.916;2023-02-19T15:10:11;17.0;;;13.0;;
53939;SDS011;39850;43.324;21.916;2023-02-19T15:43:40;23.0;;;19.0;;
53939;SDS011;39850;43.324;21.916;2023-02-19T15:48:51;23.0;;;19.0;;
53939;SDS011;39850;43.324;21.916;2023-02-19T15:53:59;22.0;;;18.0;;
53939;SDS011;39850;43.324;21.916;2023-02-19T15:58:59;22.0;;;18.0;;
53939;SDS011;39850;43.324;21.916;2023-02-19T16:03:42;23.0;;;19.0;;
53939;SDS011;39850;43.324;21.916;2023-02-19T16:08:20;23.0;;;19.0;;
53939;SDS011;39850;43.324;21.916;2023-02-19T16:13:06;23.0;;;20.0;;
53939;SDS011;39850;43.324;21.916;2023-02-19T16:17:45;23.0;;;20.0;;
53939;SDS011;39850;43.324;21.916;2023-02-19T16:22:39;25.0;;;23.0;;
53939;SDS011;39850;43.324;21.916;2023-02-19T16:27:38;25.0;;;23.0;;
53939;SDS011;39850;43.324;21.916;2023-02-19T17:04:57;40.0;;;30.0;;
53939;SDS011;39850;43.324;21.916;2023-02-19T17:09:34;40.0;;;30.0;;
53939;SDS011;39850;43.324;21.916;2023-02-19T17:14:10;33.0;;;26.0;;
53939;SDS011;39850;43.324;21.916;2023-02-19T17:18:50;33.0;;;26.0;;
53939;SDS011;39850;43.324;21.916;2023-02-19T17:23:27;26.0;;;23.0;;
53939;SDS011;39850;43.324;21.916;2023-02-19T17:28:04;26.0;;;23.0;;
53939;SDS011;39850;43.324;21.916;2023-02-19T17:32:41;26.0;;;22.0;;
53939;SDS011;39850;43.324;21.916;2023-02-19T17:37:18;26.0;;;22.0;;
53939;SDS011;39850;43.324;21.916;2023-02-19T17:41:55;26.0;;;23.0;;
53939;SDS011;39850;43.324;21.916;2023-02-19T17:46:32;26.0;;;23.0;;
53939;SDS011;39850;43.324;21.916;2023-02-19T18:23:36;16.0;;;14.0;;
53939;SDS011;39850;43.324;21.916;2023-02-19T18:28:14;16.0;;;14.0;;
53939;SDS011;39850;43.324;21.916;2023-02-19T18:32:51;17.0;;;14.0;;
53939;SDS011;39850;43.324;21.916;2023-02-19T18:37:30;17.0;;;14.0;;
53939;SDS011;39850;43.324;21.916;2023-02-19T18:42:07;17.0;;;15.0;;
53939;SDS011;39850;43.324;21.916;2023-02-19T18:46:44;17.0;;;15.0;;
53939;SDS011;39850;43.324;21.916;2023-02-19T18:51:22;18.0;;;15.0;;
53939;SDS011;39850;43.324;21.916;2023-02-19T18:55:59;18.0;;;15.0;;
53939;SDS011;39850;43.324;21.916;2023-02-19T19:00:36;18.0;;;15.0;;
53939;SDS011;39850;43.324;21.916;2023-02-19T19:05:12;17.0;;;15.0;;
53939;SDS011;39850;43.324;21.916;2023-02-19T19:09:49;17.0;;;15.0;;
53939;SDS011;39850;43.324;21.916;2023-02-19T19:42:06;20.0;;;17.0;;
53939;SDS011;39850;43.324;21.916;2023-02-19T19:46:45;20.0;;;17.0;;
53939;SDS011;39850;43.324;21.916;2023-02-19T19:51:22;20.0;;;17.0;;
53939;SDS011;39850;43.324;21.916;2023-02-19T19:56:03;22.0;;;18.0;;
53939;SDS011;39850;43.324;21.916;2023-02-19T20:00:40;22.0;;;18.0;;
53939;SDS011;39850;43.324;21.916;2023-02-19T20:05:17;20.0;;;18.0;;
53939;SDS011;39850;43.324;21.916;2023-02-19T20:09:54;20.0;;;18.0;;
53939;SDS011;39850;43.324;21.916;2023-02-19T20:14:32;22.0;;;18.0;;
53939;SDS011;39850;43.324;21.916;2023-02-19T20:19:09;22.0;;;18.0;;
53939;SDS011;39850;43.324;21.916;2023-02-19T20:23:46;20.0;;;18.0;;
53939;SDS011;39850;43.324;21.916;2023-02-19T20:28:23;20.0;;;18.0;;
53939;SDS011;39850;43.324;21.916;2023-02-19T21:05:38;24.0;;;20.0;;
53939;SDS011;39850;43.324;21.916;2023-02-19T21:10:15;24.0;;;20.0;;
53939;SDS011;39850;43.324;21.916;2023-02-19T21:14:52;23.0;;;20.0;;
53939;SDS011;39850;43.324;21.916;2023-02-19T21:19:28;23.0;;;20.0;;
53939;SDS011;39850;43.324;21.916;2023-02-19T21:24:12;22.0;;;19.0;;
53939;SDS011;39850;43.324;21.916;2023-02-19T21:28:51;22.0;;;19.0;;
53939;SDS011;39850;43.324;21.916;2023-02-19T21:33:29;21.0;;;18.0;;
53939;SDS011;39850;43.324;21.916;2023-02-19T21:38:05;21.0;;;18.0;;
53939;SDS011;39850;43.324;21.916;2023-02-19T21:42:42;20.0;;;17.0;;
53939;SDS011;39850;43.324;21.916;2023-02-19T21:47:18;20.0;;;17.0;;
53939;SDS011;39850;43.324;21.916;2023-02-19T22:24:21;18.0;;;17.0;;
53939;SDS011;39850;43.324;21.916;2023-02-19T22:29:00;18.0;;;17.0;;
53939;SDS011;39850;43.324;21.916;2023-02-19T22:33:37;20.0;;;18.0;;
53939;SDS011;39850;43.324;21.916;2023-02-19T22:38:13;20.0;;;18.0;;
53939;SDS011;39850;43.324;21.916;2023-02-19T22:42:50;21.0;;;18.0;;
53939;SDS011;39850;43.324;21.916;2023-02-19T22:47:27;21.0;;;18.0;;
53939;SDS011;39850;43.324;21.916;2023-02-19T22:52:10;22.0;;;19.0;;
53939;SDS011;39850;43.324;21.916;2023-02-19T22:56:49;22.0;;;19.0;;
53939;SDS011;39850;43.324;21.916;2023-02-19T23:01:26;22.0;;;19.0;;
53939;SDS011;39850;43.324;21.916;2023-02-19T23:06:05;22.0;;;20.0;;
53939;SDS011;39850;43.324;21.916;2023-02-19T23:10:42;22.0;;;20.0;;
53939;SDS011;39850;43.324;21.916;2023-02-19T23:43:07;36.0;;;31.0;;
53939;SDS011;39850;43.324;21.916;2023-02-19T23:47:44;36.0;;;31.0;;
53939;SDS011;39850;43.324;21.916;2023-02-19T23:52:21;36.0;;;31.0;;
53939;SDS011;39850;43.324;21.916;2023-02-19T23:56:58;35.0;;;30.0;;
